createdAt,value
2018-06-02T00:00:17.070Z,54.13
2018-06-02T00:00:49.643Z,54.28
2018-06-02T00:01:22.204Z,54.85
2018-06-02T00:01:55.422Z,54.15
2018-06-02T00:02:27.997Z,52.90
2018-06-02T00:03:00.565Z,54.17
2018-06-02T00:03:33.150Z,53.45
2018-06-02T00:04:05.734Z,53.50
2018-06-02T00:04:38.261Z,54.00
2018-06-02T00:05:10.808Z,53.75
2018-06-02T00:05:43.329Z,53.63
2018-06-02T00:06:15.873Z,52.58
2018-06-02T00:06:48.437Z,53.55
2018-06-02T00:07:20.983Z,52.13
2018-06-02T00:07:53.596Z,53.97
2018-06-02T00:08:26.150Z,53.30
2018-06-02T00:08:58.712Z,51.72
2018-06-02T00:09:31.258Z,51.70
2018-06-02T00:10:03.812Z,52.00
2018-06-02T00:10:36.376Z,54.70
2018-06-02T00:11:08.956Z,51.53
2018-06-02T00:11:41.507Z,52.67
2018-06-02T00:12:14.031Z,52.03
2018-06-02T00:12:46.615Z,51.67
2018-06-02T00:13:19.168Z,53.60
2018-06-02T00:13:51.721Z,50.80
2018-06-02T00:14:24.291Z,50.30
2018-06-02T00:14:56.865Z,50.45
2018-06-02T00:15:29.429Z,51.97
2018-06-02T00:16:02.023Z,51.88
2018-06-02T00:16:35.303Z,49.93
2018-06-02T00:17:07.851Z,50.10
2018-06-02T00:17:40.401Z,48.72
2018-06-02T00:18:12.955Z,47.22
2018-06-02T00:18:45.505Z,44.75
2018-06-02T00:19:18.038Z,38.65
2018-06-02T00:19:50.602Z,39.13
2018-06-02T00:20:23.197Z,37.70
2018-06-02T00:20:55.871Z,38.38
2018-06-02T00:21:28.395Z,38.75
2018-06-02T00:22:00.921Z,33.85
2018-06-02T00:22:33.452Z,33.53
2018-06-02T00:23:06.016Z,32.50
2018-06-02T00:23:38.562Z,31.33
2018-06-02T00:24:11.105Z,30.70
2018-06-02T00:24:43.651Z,30.42
2018-06-02T00:25:19.046Z,29.58
2018-06-02T00:25:51.643Z,27.90
2018-06-02T00:26:24.208Z,26.75
2018-06-02T00:26:56.767Z,26.95
2018-06-02T00:27:29.328Z,26.15
2018-06-02T00:28:01.912Z,25.42
2018-06-02T00:28:34.439Z,25.10
2018-06-02T00:29:06.971Z,23.05
2018-06-02T00:29:39.525Z,23.85
2018-06-02T00:30:12.070Z,23.35
2018-06-02T00:30:44.644Z,22.10
2018-06-02T00:31:17.196Z,22.52
2018-06-02T00:31:49.784Z,22.15
2018-06-02T00:32:22.615Z,22.52
2018-06-02T00:32:55.148Z,22.45
2018-06-02T00:33:27.676Z,21.70
2018-06-02T00:34:00.216Z,22.25
2018-06-02T00:34:32.756Z,23.20
2018-06-02T00:35:06.077Z,23.42
2018-06-02T00:35:38.656Z,22.48
2018-06-02T00:36:11.228Z,23.67
2018-06-02T00:36:43.821Z,22.98
2018-06-02T00:37:16.413Z,22.58
2018-06-02T00:37:48.968Z,23.83
2018-06-02T00:38:21.526Z,22.15
2018-06-02T00:38:54.080Z,22.67
2018-06-02T00:39:26.611Z,21.80
2018-06-02T00:39:59.211Z,21.40
2018-06-02T00:40:31.835Z,22.48
2018-06-02T00:41:04.378Z,21.00
2018-06-02T00:41:36.947Z,21.70
2018-06-02T00:42:09.557Z,22.42
2018-06-02T00:42:42.884Z,21.23
2018-06-02T00:43:15.478Z,21.60
2018-06-02T00:43:48.102Z,21.73
2018-06-02T00:44:20.640Z,22.08
2018-06-02T00:44:53.197Z,21.77
2018-06-02T00:45:25.746Z,21.12
2018-06-02T00:45:58.313Z,21.37
2018-06-02T00:46:30.872Z,20.70
2018-06-02T00:47:03.423Z,21.85
2018-06-02T00:47:35.998Z,21.33
2018-06-02T00:48:08.559Z,21.87
2018-06-02T00:48:41.113Z,21.00
2018-06-02T00:49:13.683Z,21.58
2018-06-02T00:49:46.258Z,20.55
2018-06-02T00:50:19.159Z,21.96
2018-06-02T00:50:51.719Z,22.15
2018-06-02T00:51:24.274Z,21.92
2018-06-02T00:51:56.856Z,22.08
2018-06-02T00:52:29.402Z,20.90
2018-06-02T00:53:01.964Z,21.35
2018-06-02T00:53:34.511Z,21.33
2018-06-02T00:54:07.050Z,21.27
2018-06-02T00:54:51.493Z,21.77
2018-06-02T00:55:24.035Z,19.80
2018-06-02T00:55:56.579Z,21.02
2018-06-02T00:56:29.151Z,20.27
2018-06-02T00:57:01.779Z,20.92
2018-06-02T00:57:34.340Z,20.85
2018-06-02T00:58:06.904Z,20.75
2018-06-02T00:58:39.443Z,21.70
2018-06-02T00:59:12.010Z,21.30
2018-06-02T00:59:44.975Z,22.27
2018-06-02T01:00:17.539Z,21.23
2018-06-02T01:00:50.112Z,21.73
2018-06-02T01:01:22.664Z,21.23
2018-06-02T01:01:55.860Z,22.08
2018-06-02T01:02:28.422Z,22.50
2018-06-02T01:03:00.996Z,21.92
2018-06-02T01:03:33.534Z,21.40
2018-06-02T01:04:06.112Z,21.50
2018-06-02T01:04:38.741Z,21.67
2018-06-02T01:05:11.316Z,20.35
2018-06-02T01:05:43.853Z,22.27
2018-06-02T01:06:16.380Z,21.50
2018-06-02T01:06:48.939Z,21.83
2018-06-02T01:07:21.465Z,22.00
2018-06-02T01:07:54.016Z,22.25
2018-06-02T01:08:26.580Z,22.10
2018-06-02T01:08:59.116Z,22.55
2018-06-02T01:09:31.668Z,20.65
2018-06-02T01:10:04.235Z,21.73
2018-06-02T01:10:36.806Z,22.03
2018-06-02T01:11:09.361Z,22.08
2018-06-02T01:11:47.455Z,20.70
2018-06-02T01:12:19.986Z,21.02
2018-06-02T01:12:52.564Z,21.55
2018-06-02T01:13:25.135Z,21.42
2018-06-02T01:13:57.673Z,21.50
2018-06-02T01:14:30.228Z,21.87
2018-06-02T01:15:02.991Z,22.95
2018-06-02T01:15:35.553Z,22.58
2018-06-02T01:16:08.134Z,22.25
2018-06-02T01:16:40.708Z,21.67
2018-06-02T01:17:13.542Z,21.70
2018-06-02T01:17:46.068Z,21.17
2018-06-02T01:18:19.268Z,22.42
2018-06-02T01:18:51.842Z,22.45
2018-06-02T01:19:24.398Z,21.83
2018-06-02T01:19:56.926Z,22.80
2018-06-02T01:20:29.537Z,22.63
2018-06-02T01:21:02.108Z,23.60
2018-06-02T01:21:34.645Z,24.20
2018-06-02T01:22:07.198Z,25.30
2018-06-02T01:22:39.754Z,24.25
2018-06-02T01:23:12.284Z,24.52
2018-06-02T01:23:44.848Z,24.52
2018-06-02T01:24:17.397Z,24.77
2018-06-02T01:24:49.966Z,24.15
2018-06-02T01:25:22.494Z,24.48
2018-06-02T01:25:55.039Z,24.00
2018-06-02T01:26:27.584Z,24.00
2018-06-02T01:27:00.127Z,24.30
2018-06-02T01:27:32.685Z,24.55
2018-06-02T01:28:05.556Z,24.05
2018-06-02T01:28:38.091Z,24.10
2018-06-02T01:29:10.640Z,24.73
2018-06-02T01:29:43.177Z,25.67
2018-06-02T01:30:15.751Z,24.98
2018-06-02T01:30:49.059Z,24.87
2018-06-02T01:31:21.603Z,25.20
2018-06-02T01:31:54.161Z,26.17
2018-06-02T01:32:26.723Z,25.90
2018-06-02T01:32:59.272Z,25.37
2018-06-02T01:33:31.819Z,25.73
2018-06-02T01:34:04.356Z,26.25
2018-06-02T01:34:36.911Z,25.33
2018-06-02T01:35:09.465Z,26.00
2018-06-02T01:35:42.041Z,26.23
2018-06-02T01:36:14.585Z,24.75
2018-06-02T01:36:47.131Z,24.17
2018-06-02T01:37:20.466Z,25.60
2018-06-02T01:37:52.988Z,25.98
2018-06-02T01:38:25.579Z,25.73
2018-06-02T01:38:58.108Z,25.58
2018-06-02T01:39:31.401Z,25.65
2018-06-02T01:40:03.981Z,25.80
2018-06-02T01:40:36.521Z,26.30
2018-06-02T01:41:09.085Z,26.95
2018-06-02T01:41:41.637Z,25.92
2018-06-02T01:42:14.195Z,26.67
2018-06-02T01:42:46.745Z,27.52
2018-06-02T01:43:19.302Z,28.23
2018-06-02T01:43:51.863Z,26.48
2018-06-02T01:44:24.425Z,28.83
2018-06-02T01:44:56.959Z,28.17
2018-06-02T01:45:29.509Z,27.98
2018-06-02T01:46:02.031Z,28.60
2018-06-02T01:46:36.660Z,27.53
2018-06-02T01:47:09.201Z,27.62
2018-06-02T01:47:41.756Z,27.10
2018-06-02T01:48:14.331Z,27.05
2018-06-02T01:48:46.871Z,28.25
2018-06-02T01:49:19.402Z,26.95
2018-06-02T01:49:51.984Z,28.45
2018-06-02T01:50:24.553Z,27.87
2018-06-02T01:50:57.121Z,28.75
2018-06-02T01:51:29.675Z,28.12
2018-06-02T01:52:02.227Z,28.70
2018-06-02T01:52:34.788Z,29.60
2018-06-02T01:53:07.383Z,28.30
2018-06-02T01:53:40.248Z,29.73
2018-06-02T01:54:12.857Z,29.65
2018-06-02T01:54:45.436Z,29.65
2018-06-02T01:55:17.993Z,30.95
2018-06-02T01:55:50.605Z,30.90
2018-06-02T01:56:23.161Z,32.13
2018-06-02T01:56:55.740Z,32.42
2018-06-02T01:57:28.283Z,32.97
2018-06-02T01:58:00.835Z,32.35
2018-06-02T01:58:33.428Z,32.28
2018-06-02T01:59:05.980Z,32.95
2018-06-02T01:59:38.531Z,33.00
2018-06-02T02:00:11.090Z,32.30
2018-06-02T02:00:43.650Z,32.08
2018-06-02T02:01:16.189Z,31.25
2018-06-02T02:01:48.729Z,31.90
2018-06-02T02:02:21.259Z,31.58
2018-06-02T02:02:53.811Z,32.88
2018-06-02T02:03:26.375Z,32.75
2018-06-02T02:03:58.945Z,33.60
2018-06-02T02:04:31.514Z,34.23
2018-06-02T02:05:04.079Z,34.47
2018-06-02T02:05:36.670Z,35.17
2018-06-02T02:06:09.212Z,35.05
2018-06-02T02:06:41.747Z,34.42
2018-06-02T02:07:14.294Z,34.55
2018-06-02T02:07:46.853Z,35.30
2018-06-02T02:08:19.403Z,34.92
2018-06-02T02:08:52.004Z,34.78
2018-06-02T02:09:24.567Z,35.78
2018-06-02T02:09:57.147Z,35.72
2018-06-02T02:10:29.677Z,34.60
2018-06-02T02:11:02.256Z,37.63
2018-06-02T02:11:34.844Z,34.15
2018-06-02T02:12:07.394Z,35.85
2018-06-02T02:12:39.954Z,35.28
2018-06-02T02:13:12.623Z,37.08
2018-06-02T02:13:45.180Z,36.75
2018-06-02T02:14:17.928Z,36.22
2018-06-02T02:14:50.483Z,36.85
2018-06-02T02:15:23.037Z,36.42
2018-06-02T02:15:55.600Z,36.13
2018-06-02T02:16:28.186Z,36.20
2018-06-02T02:17:00.808Z,36.13
2018-06-02T02:17:33.383Z,35.78
2018-06-02T02:18:05.952Z,36.75
2018-06-02T02:18:38.509Z,36.97
2018-06-02T02:19:11.048Z,37.35
2018-06-02T02:19:43.625Z,36.58
2018-06-02T02:20:16.216Z,36.42
2018-06-02T02:20:48.780Z,36.40
2018-06-02T02:21:21.379Z,37.10
2018-06-02T02:21:53.940Z,36.65
2018-06-02T02:22:26.463Z,36.90
2018-06-02T02:22:59.034Z,35.60
2018-06-02T02:23:31.547Z,36.67
2018-06-02T02:24:04.091Z,37.88
2018-06-02T02:24:36.639Z,36.80
2018-06-02T02:25:09.190Z,35.53
2018-06-02T02:25:41.728Z,35.35
2018-06-02T02:26:14.292Z,36.95
2018-06-02T02:26:46.867Z,36.85
2018-06-02T02:27:19.398Z,37.10
2018-06-02T02:27:51.976Z,38.83
2018-06-02T02:28:25.280Z,38.60
2018-06-02T02:28:57.829Z,37.92
2018-06-02T02:29:30.359Z,37.17
2018-06-02T02:30:02.889Z,38.25
2018-06-02T02:30:35.428Z,39.40
2018-06-02T02:31:07.960Z,38.63
2018-06-02T02:31:40.496Z,37.92
2018-06-02T02:32:13.088Z,38.65
2018-06-02T02:32:45.636Z,38.22
2018-06-02T02:33:18.175Z,39.67
2018-06-02T02:33:50.697Z,38.28
2018-06-02T02:34:24.040Z,38.33
2018-06-02T02:34:56.591Z,37.38
2018-06-02T02:35:29.160Z,38.97
2018-06-02T02:36:01.716Z,39.78
2018-06-02T02:36:34.265Z,39.00
2018-06-02T02:37:06.797Z,38.97
2018-06-02T02:37:39.388Z,39.38
2018-06-02T02:38:11.915Z,39.50
2018-06-02T02:38:44.511Z,38.13
2018-06-02T02:39:17.114Z,39.05
2018-06-02T02:39:49.664Z,39.13
2018-06-02T02:40:22.223Z,39.63
2018-06-02T02:40:54.802Z,38.30
2018-06-02T02:41:27.349Z,40.28
2018-06-02T02:41:59.916Z,39.08
2018-06-02T02:42:32.489Z,38.55
2018-06-02T02:43:05.050Z,40.28
2018-06-02T02:43:37.606Z,39.65
2018-06-02T02:44:10.191Z,38.10
2018-06-02T02:44:42.767Z,39.10
2018-06-02T02:45:15.293Z,39.10
2018-06-02T02:45:47.826Z,41.08
2018-06-02T02:46:20.348Z,39.72
2018-06-02T02:46:52.914Z,40.33
2018-06-02T02:47:25.467Z,41.17
2018-06-02T02:47:57.991Z,41.25
2018-06-02T02:48:31.296Z,42.07
2018-06-02T02:49:03.842Z,42.08
2018-06-02T02:49:36.389Z,41.33
2018-06-02T02:50:08.947Z,41.67
2018-06-02T02:50:41.511Z,41.58
2018-06-02T02:51:14.081Z,42.00
2018-06-02T02:51:46.648Z,42.20
2018-06-02T02:52:19.167Z,42.88
2018-06-02T02:52:51.711Z,40.78
2018-06-02T02:53:24.238Z,41.63
2018-06-02T02:53:56.803Z,42.10
2018-06-02T02:54:30.125Z,42.47
2018-06-02T02:55:02.664Z,41.60
2018-06-02T02:55:35.200Z,42.33
2018-06-02T02:56:07.796Z,43.55
2018-06-02T02:56:40.328Z,42.40
2018-06-02T02:57:12.919Z,41.40
2018-06-02T02:57:45.492Z,42.38
2018-06-02T02:58:18.020Z,42.88
2018-06-02T02:58:50.587Z,43.15
2018-06-02T02:59:23.180Z,43.00
2018-06-02T02:59:55.708Z,42.40
2018-06-02T03:00:28.273Z,41.17
2018-06-02T03:01:00.851Z,41.78
2018-06-02T03:01:33.400Z,41.50
2018-06-02T03:02:06.471Z,42.53
2018-06-02T03:02:39.794Z,42.90
2018-06-02T03:03:12.368Z,42.35
2018-06-02T03:03:45.023Z,42.42
2018-06-02T03:04:17.602Z,41.72
2018-06-02T03:04:50.183Z,44.92
2018-06-02T03:05:22.718Z,44.28
2018-06-02T03:05:55.279Z,44.45
2018-06-02T03:06:27.835Z,44.33
2018-06-02T03:07:00.371Z,43.87
2018-06-02T03:07:32.935Z,42.65
2018-06-02T03:08:05.456Z,45.65
2018-06-02T03:08:37.994Z,45.43
2018-06-02T03:09:10.536Z,44.58
2018-06-02T03:09:43.072Z,44.25
2018-06-02T03:10:15.648Z,43.72
2018-06-02T03:10:48.219Z,43.25
2018-06-02T03:11:20.779Z,44.53
2018-06-02T03:11:53.339Z,44.78
2018-06-02T03:12:25.876Z,44.70
2018-06-02T03:12:58.406Z,43.22
2018-06-02T03:13:30.963Z,44.47
2018-06-02T03:14:03.480Z,43.30
2018-06-02T03:14:36.045Z,44.10
2018-06-02T03:15:08.603Z,44.92
2018-06-02T03:15:41.147Z,45.17
2018-06-02T03:16:13.729Z,46.33
2018-06-02T03:16:46.297Z,45.78
2018-06-02T03:17:18.849Z,46.13
2018-06-02T03:17:51.392Z,46.00
2018-06-02T03:18:23.943Z,43.85
2018-06-02T03:18:56.512Z,46.15
2018-06-02T03:19:29.095Z,45.72
2018-06-02T03:20:01.657Z,45.88
2018-06-02T03:20:35.029Z,44.95
2018-06-02T03:21:07.591Z,44.42
2018-06-02T03:21:40.138Z,44.83
2018-06-02T03:22:12.747Z,45.53
2018-06-02T03:22:45.327Z,44.65
2018-06-02T03:23:17.879Z,46.20
2018-06-02T03:23:50.403Z,44.20
2018-06-02T03:24:22.939Z,45.03
2018-06-02T03:24:55.508Z,42.62
2018-06-02T03:25:28.037Z,46.78
2018-06-02T03:26:01.481Z,45.53
2018-06-02T03:26:34.076Z,46.00
2018-06-02T03:27:06.644Z,46.75
2018-06-02T03:27:39.954Z,46.42
2018-06-02T03:28:12.540Z,45.58
2018-06-02T03:28:45.114Z,45.30
2018-06-02T03:29:17.666Z,47.00
2018-06-02T03:29:50.213Z,47.28
2018-06-02T03:30:22.777Z,47.28
2018-06-02T03:30:55.367Z,45.63
2018-06-02T03:31:27.943Z,47.45
2018-06-02T03:32:00.497Z,45.17
2018-06-02T03:32:33.064Z,47.13
2018-06-02T03:33:05.620Z,47.60
2018-06-02T03:33:38.156Z,45.17
2018-06-02T03:34:10.711Z,45.92
2018-06-02T03:34:43.256Z,45.78
2018-06-02T03:35:15.795Z,46.10
2018-06-02T03:35:48.365Z,47.35
2018-06-02T03:36:20.961Z,48.95
2018-06-02T03:36:53.540Z,47.67
2018-06-02T03:37:26.110Z,47.62
2018-06-02T03:38:00.004Z,47.40
2018-06-02T03:38:32.573Z,45.97
2018-06-02T03:39:05.125Z,47.20
2018-06-02T03:39:37.653Z,48.85
2018-06-02T03:40:10.184Z,52.05
2018-06-02T03:40:42.750Z,47.62
2018-06-02T03:41:15.466Z,49.15
2018-06-02T03:41:48.048Z,56.45
2018-06-02T03:42:20.624Z,51.92
2018-06-02T03:42:53.192Z,60.25
2018-06-02T03:43:25.771Z,59.17
2018-06-02T03:43:58.301Z,52.10
2018-06-02T03:44:30.835Z,77.03
2018-06-02T03:45:04.160Z,88.12
2018-06-02T03:45:36.688Z,75.20
2018-06-02T03:46:11.631Z,86.47
2018-06-02T03:46:44.176Z,82.68
2018-06-02T03:47:17.489Z,93.15
2018-06-02T03:47:50.017Z,75.68
2018-06-02T03:48:22.657Z,64.47
2018-06-02T03:48:55.193Z,55.03
2018-06-02T03:49:27.750Z,51.83
2018-06-02T03:50:00.347Z,49.45
2018-06-02T03:50:32.870Z,54.83
2018-06-02T03:51:05.415Z,50.72
2018-06-02T03:51:38.180Z,48.78
2018-06-02T03:52:10.899Z,48.83
2018-06-02T03:52:43.450Z,48.28
2018-06-02T03:53:15.987Z,50.28
2018-06-02T03:53:49.226Z,53.70
2018-06-02T03:54:21.783Z,50.00
2018-06-02T03:54:54.336Z,49.20
2018-06-02T03:55:26.888Z,48.38
2018-06-02T03:56:01.641Z,48.05
2018-06-02T03:56:34.975Z,51.17
2018-06-02T03:57:07.935Z,46.15
2018-06-02T03:57:40.494Z,48.42
2018-06-02T03:58:13.088Z,49.28
2018-06-02T03:58:45.642Z,50.97
2018-06-02T03:59:18.230Z,51.10
2018-06-02T03:59:50.765Z,51.90
2018-06-02T04:00:23.317Z,51.55
2018-06-02T04:00:55.875Z,55.05
2018-06-02T04:01:28.448Z,89.25
2018-06-02T04:02:01.022Z,106.55
2018-06-02T04:02:33.610Z,94.67
2018-06-02T04:03:06.727Z,50.25
2018-06-02T04:03:39.323Z,48.90
2018-06-02T04:04:11.901Z,49.00
2018-06-02T04:04:44.515Z,50.30
2018-06-02T04:05:17.073Z,49.08
2018-06-02T04:05:49.625Z,49.05
2018-06-02T04:06:22.966Z,50.42
2018-06-02T04:06:55.512Z,50.40
2018-06-02T04:07:28.833Z,49.72
2018-06-02T04:08:01.381Z,51.95
2018-06-02T04:08:33.933Z,51.27
2018-06-02T04:09:06.497Z,51.45
2018-06-02T04:09:39.027Z,51.60
2018-06-02T04:10:11.572Z,51.70
2018-06-02T04:10:44.134Z,51.30
2018-06-02T04:11:16.699Z,52.22
2018-06-02T04:11:49.261Z,49.88
2018-06-02T04:12:21.828Z,51.58
2018-06-02T04:12:54.343Z,52.17
2018-06-02T04:13:26.902Z,52.47
2018-06-02T04:13:59.448Z,51.83
2018-06-02T04:14:31.971Z,50.97
2018-06-02T04:15:05.333Z,52.42
2018-06-02T04:15:37.873Z,52.05
2018-06-02T04:16:10.420Z,51.22
2018-06-02T04:16:42.959Z,53.28
2018-06-02T04:17:15.506Z,53.78
2018-06-02T04:17:48.095Z,51.35
2018-06-02T04:18:20.686Z,52.13
2018-06-02T04:18:53.308Z,51.75
2018-06-02T04:19:26.631Z,52.05
2018-06-02T04:19:59.209Z,52.42
2018-06-02T04:20:31.769Z,51.90
2018-06-02T04:21:04.334Z,52.67
2018-06-02T04:21:36.883Z,52.75
2018-06-02T04:22:09.432Z,53.13
2018-06-02T04:22:42.010Z,53.38
2018-06-02T04:23:14.578Z,53.03
2018-06-02T04:23:47.103Z,52.03
2018-06-02T04:24:20.445Z,52.80
2018-06-02T04:24:52.965Z,52.17
2018-06-02T04:25:25.501Z,52.30
2018-06-02T04:25:58.050Z,55.67
2018-06-02T04:26:30.584Z,53.60
2018-06-02T04:27:03.169Z,55.47
2018-06-02T04:27:35.710Z,54.08
2018-06-02T04:28:08.236Z,54.65
2018-06-02T04:28:40.773Z,52.65
2018-06-02T04:29:13.299Z,52.95
2018-06-02T04:29:45.846Z,52.60
2018-06-02T04:30:19.242Z,53.20
2018-06-02T04:30:51.785Z,53.40
2018-06-02T04:31:24.320Z,53.67
2018-06-02T04:31:56.864Z,53.55
2018-06-02T04:32:29.390Z,56.37
2018-06-02T04:33:01.953Z,55.78
2018-06-02T04:33:34.512Z,55.45
2018-06-02T04:34:07.048Z,57.80
2018-06-02T04:34:39.579Z,56.35
2018-06-02T04:35:12.951Z,56.10
2018-06-02T04:35:45.524Z,56.60
2018-06-02T04:36:18.064Z,56.50
2018-06-02T04:36:50.621Z,56.45
2018-06-02T04:37:23.210Z,55.08
2018-06-02T04:37:55.739Z,56.30
2018-06-02T04:38:28.297Z,55.80
2018-06-02T04:39:00.840Z,54.08
2018-06-02T04:39:33.371Z,56.15
2018-06-02T04:40:05.912Z,55.08
2018-06-02T04:40:38.477Z,54.75
2018-06-02T04:41:11.001Z,55.10
2018-06-02T04:41:43.552Z,55.25
2018-06-02T04:42:16.124Z,56.33
2018-06-02T04:42:48.677Z,54.22
2018-06-02T04:43:21.221Z,57.58
2018-06-02T04:43:53.768Z,56.85
2018-06-02T04:44:26.313Z,55.83
2018-06-02T04:44:58.868Z,56.20
2018-06-02T04:45:31.435Z,56.37
2018-06-02T04:46:03.976Z,56.83
2018-06-02T04:46:36.524Z,58.20
2018-06-02T04:47:09.081Z,55.50
2018-06-02T04:47:41.618Z,56.42
2018-06-02T04:48:14.193Z,57.58
2018-06-02T04:48:47.515Z,56.97
2018-06-02T04:49:20.066Z,57.67
2018-06-02T04:49:52.741Z,57.62
2018-06-02T04:50:25.292Z,56.33
2018-06-02T04:50:57.829Z,55.42
2018-06-02T04:51:30.388Z,56.63
2018-06-02T04:52:02.949Z,57.05
2018-06-02T04:52:35.478Z,55.97
2018-06-02T04:53:08.032Z,56.88
2018-06-02T04:53:40.593Z,55.60
2018-06-02T04:54:13.150Z,57.47
2018-06-02T04:54:45.710Z,56.72
2018-06-02T04:55:18.270Z,58.67
2018-06-02T04:55:50.825Z,60.05
2018-06-02T04:56:23.405Z,57.15
2018-06-02T04:56:56.007Z,60.05
2018-06-02T04:57:28.572Z,58.60
2018-06-02T04:58:01.149Z,59.72
2018-06-02T04:58:33.701Z,57.37
2018-06-02T04:59:06.251Z,60.50
2018-06-02T04:59:38.817Z,60.45
2018-06-02T05:00:11.375Z,58.05
2018-06-02T05:00:43.909Z,58.22
2018-06-02T05:01:16.481Z,59.70
2018-06-02T05:01:49.037Z,57.92
2018-06-02T05:02:21.568Z,57.10
2018-06-02T05:02:54.165Z,58.95
2018-06-02T05:03:26.726Z,58.10
2018-06-02T05:03:59.262Z,57.80
2018-06-02T05:04:31.853Z,58.50
2018-06-02T05:05:04.424Z,57.90
2018-06-02T05:05:36.963Z,56.83
2018-06-02T05:06:09.528Z,60.03
2018-06-02T05:06:42.095Z,57.55
2018-06-02T05:07:14.660Z,58.17
2018-06-02T05:07:47.218Z,57.13
2018-06-02T05:08:19.790Z,57.67
2018-06-02T05:08:52.364Z,59.30
2018-06-02T05:09:24.915Z,57.00
2018-06-02T05:09:57.463Z,57.00
2018-06-02T05:10:30.012Z,59.10
2018-06-02T05:11:02.606Z,59.00
2018-06-02T05:11:35.173Z,57.83
2018-06-02T05:12:07.728Z,57.60
2018-06-02T05:12:40.278Z,57.75
2018-06-02T05:13:12.813Z,58.40
2018-06-02T05:13:45.408Z,59.38
2018-06-02T05:14:17.955Z,60.42
2018-06-02T05:14:50.486Z,59.92
2018-06-02T05:15:23.647Z,61.37
2018-06-02T05:15:56.170Z,62.05
2018-06-02T05:16:29.492Z,59.87
2018-06-02T05:17:02.051Z,61.60
2018-06-02T05:17:34.613Z,63.30
2018-06-02T05:18:07.171Z,64.15
2018-06-02T05:18:39.743Z,64.37
2018-06-02T05:19:12.292Z,63.78
2018-06-02T05:19:44.849Z,65.85
2018-06-02T05:20:17.430Z,64.32
2018-06-02T05:20:49.993Z,61.33
2018-06-02T05:21:22.550Z,62.80
2018-06-02T05:21:55.099Z,65.45
2018-06-02T05:22:27.668Z,65.10
2018-06-02T05:23:00.227Z,66.30
2018-06-02T05:23:32.796Z,65.25
2018-06-02T05:24:05.352Z,65.60
2018-06-02T05:24:37.940Z,64.43
2018-06-02T05:25:10.462Z,62.42
2018-06-02T05:25:42.988Z,67.05
2018-06-02T05:26:15.510Z,64.05
2018-06-02T05:26:48.068Z,65.65
2018-06-02T05:27:20.611Z,65.55
2018-06-02T05:27:53.176Z,66.35
2018-06-02T05:28:26.506Z,65.90
2018-06-02T05:28:59.047Z,65.50
2018-06-02T05:29:31.609Z,64.37
2018-06-02T05:30:04.170Z,65.78
2018-06-02T05:30:36.730Z,64.87
2018-06-02T05:31:09.273Z,66.78
2018-06-02T05:31:41.815Z,65.70
2018-06-02T05:32:14.378Z,65.07
2018-06-02T05:32:46.943Z,66.70
2018-06-02T05:33:19.508Z,67.28
2018-06-02T05:33:52.071Z,65.65
2018-06-02T05:34:24.705Z,66.97
2018-06-02T05:34:57.285Z,68.62
2018-06-02T05:35:29.868Z,66.60
2018-06-02T05:36:02.434Z,67.28
2018-06-02T05:36:35.030Z,67.23
2018-06-02T05:37:07.583Z,69.00
2018-06-02T05:37:40.137Z,67.60
2018-06-02T05:38:12.714Z,67.10
2018-06-02T05:38:45.945Z,67.90
2018-06-02T05:39:18.494Z,67.72
2018-06-02T05:39:51.038Z,69.62
2018-06-02T05:40:23.624Z,68.40
2018-06-02T05:40:56.184Z,67.70
2018-06-02T05:41:28.734Z,68.12
2018-06-02T05:42:01.309Z,69.03
2018-06-02T05:42:33.869Z,68.33
2018-06-02T05:43:06.426Z,67.50
2018-06-02T05:43:38.954Z,68.85
2018-06-02T05:44:11.523Z,67.93
2018-06-02T05:44:45.002Z,69.03
2018-06-02T05:45:17.585Z,69.03
2018-06-02T05:45:50.194Z,66.97
2018-06-02T05:46:23.107Z,67.75
2018-06-02T05:46:56.449Z,69.28
2018-06-02T05:47:29.001Z,66.82
2018-06-02T05:48:01.557Z,67.65
2018-06-02T05:48:34.128Z,66.17
2018-06-02T05:49:06.665Z,65.53
2018-06-02T05:49:39.192Z,65.95
2018-06-02T05:50:11.752Z,66.57
2018-06-02T05:50:44.309Z,69.05
2018-06-02T05:51:16.880Z,66.82
2018-06-02T05:51:49.487Z,65.75
2018-06-02T05:52:22.064Z,64.95
2018-06-02T05:52:54.632Z,63.85
2018-06-02T05:53:27.201Z,65.95
2018-06-02T05:53:59.739Z,65.43
2018-06-02T05:54:32.299Z,62.97
2018-06-02T05:55:04.823Z,63.80
2018-06-02T05:55:37.404Z,64.95
2018-06-02T05:56:10.002Z,61.70
2018-06-02T05:56:42.538Z,62.03
2018-06-02T05:57:15.096Z,63.87
2018-06-02T05:57:48.425Z,64.78
2018-06-02T05:58:20.994Z,64.22
2018-06-02T05:58:53.557Z,66.45
2018-06-02T05:59:26.111Z,65.32
2018-06-02T05:59:58.749Z,64.65
2018-06-02T06:00:31.216Z,66.03
2018-06-02T06:01:03.759Z,65.32
2018-06-02T06:01:36.315Z,63.38
2018-06-02T06:02:08.875Z,65.75
2018-06-02T06:02:41.435Z,65.50
2018-06-02T06:03:14.005Z,62.97
2018-06-02T06:03:46.539Z,63.33
2018-06-02T06:04:19.167Z,64.48
2018-06-02T06:04:51.709Z,63.50
2018-06-02T06:05:24.263Z,61.45
2018-06-02T06:05:56.827Z,62.50
2018-06-02T06:06:29.401Z,63.22
2018-06-02T06:07:01.967Z,61.78
2018-06-02T06:07:34.530Z,63.78
2018-06-02T06:08:07.071Z,63.65
2018-06-02T06:08:39.676Z,65.75
2018-06-02T06:09:12.266Z,67.15
2018-06-02T06:09:44.792Z,64.62
2018-06-02T06:10:17.384Z,67.18
2018-06-02T06:10:49.924Z,67.28
2018-06-02T06:11:22.467Z,65.50
2018-06-02T06:11:55.032Z,66.80
2018-06-02T06:12:27.588Z,63.70
2018-06-02T06:13:00.135Z,60.72
2018-06-02T06:13:32.709Z,63.17
2018-06-02T06:14:05.264Z,58.60
2018-06-02T06:14:37.798Z,63.13
2018-06-02T06:15:10.327Z,62.47
2018-06-02T06:15:42.901Z,60.10
2018-06-02T06:16:15.460Z,59.67
2018-06-02T06:16:48.024Z,58.35
2018-06-02T06:17:20.587Z,58.67
2018-06-02T06:17:53.129Z,58.53
2018-06-02T06:18:25.721Z,57.80
2018-06-02T06:18:58.306Z,57.17
2018-06-02T06:19:30.880Z,57.08
2018-06-02T06:20:03.469Z,52.95
2018-06-02T06:20:36.106Z,47.37
2018-06-02T06:21:08.668Z,45.50
2018-06-02T06:21:41.224Z,44.97
2018-06-02T06:22:13.757Z,42.10
2018-06-02T06:22:46.334Z,40.00
2018-06-02T06:23:18.872Z,36.13
2018-06-02T06:23:51.427Z,34.22
2018-06-02T06:24:23.977Z,34.58
2018-06-02T06:24:56.516Z,33.97
2018-06-02T06:25:29.895Z,34.55
2018-06-02T06:26:02.462Z,34.20
2018-06-02T06:26:34.992Z,33.20
2018-06-02T06:27:07.531Z,32.97
2018-06-02T06:27:40.853Z,33.30
2018-06-02T06:28:13.390Z,32.28
2018-06-02T06:28:45.955Z,32.83
2018-06-02T06:29:19.011Z,30.88
2018-06-02T06:29:52.340Z,31.48
2018-06-02T06:30:24.919Z,31.20
2018-06-02T06:30:57.476Z,30.33
2018-06-02T06:31:30.062Z,30.73
2018-06-02T06:32:02.630Z,29.95
2018-06-02T06:32:35.177Z,30.37
2018-06-02T06:33:07.716Z,28.02
2018-06-02T06:33:40.254Z,29.92
2018-06-02T06:34:12.800Z,29.25
2018-06-02T06:34:45.960Z,29.17
2018-06-02T06:35:18.518Z,28.45
2018-06-02T06:35:51.089Z,28.00
2018-06-02T06:36:23.688Z,28.75
2018-06-02T06:36:56.271Z,28.20
2018-06-02T06:37:28.841Z,28.20
2018-06-02T06:38:01.388Z,27.60
2018-06-02T06:38:33.983Z,27.43
2018-06-02T06:39:06.592Z,26.25
2018-06-02T06:39:39.165Z,25.10
2018-06-02T06:40:11.729Z,26.45
2018-06-02T06:40:44.332Z,26.73
2018-06-02T06:41:16.929Z,26.42
2018-06-02T06:41:49.510Z,26.23
2018-06-02T06:42:22.826Z,25.17
2018-06-02T06:42:55.370Z,24.73
2018-06-02T06:43:27.928Z,25.42
2018-06-02T06:44:00.492Z,26.02
2018-06-02T06:44:33.087Z,25.40
2018-06-02T06:45:05.622Z,25.37
2018-06-02T06:45:38.191Z,25.73
2018-06-02T06:46:10.748Z,25.33
2018-06-02T06:46:43.267Z,25.17
2018-06-02T06:47:15.873Z,24.08
2018-06-02T06:47:48.412Z,23.75
2018-06-02T06:48:20.966Z,23.48
2018-06-02T06:48:53.498Z,22.92
2018-06-02T06:49:26.078Z,23.38
2018-06-02T06:49:59.385Z,22.58
2018-06-02T06:50:32.425Z,20.57
2018-06-02T06:51:04.978Z,19.87
2018-06-02T06:51:37.521Z,20.42
2018-06-02T06:52:10.063Z,19.27
2018-06-02T06:52:43.428Z,19.42
2018-06-02T06:53:15.986Z,20.00
2018-06-02T06:53:48.533Z,19.80
2018-06-02T06:54:21.078Z,19.05
2018-06-02T06:54:53.601Z,18.85
2018-06-02T06:55:26.233Z,18.45
2018-06-02T06:55:58.738Z,19.40
2018-06-02T06:56:31.295Z,18.30
2018-06-02T06:57:03.839Z,17.85
2018-06-02T06:57:36.392Z,17.45
2018-06-02T06:58:08.964Z,17.83
2018-06-02T06:58:41.497Z,17.10
2018-06-02T06:59:14.048Z,15.82
2018-06-02T06:59:46.595Z,16.73
2018-06-02T07:00:19.182Z,16.50